createdAt,value
2022-11-20T00:03:57.303Z,74.02
2022-11-20T00:08:08.776Z,73.87
2022-11-20T00:12:20.222Z,74.11
2022-11-20T00:16:33.850Z,74.13
2022-11-20T00:20:45.293Z,74.26
2022-11-20T00:24:58.303Z,74.39
2022-11-20T00:29:11.323Z,74.55
2022-11-20T00:33:22.813Z,74.55
2022-11-20T00:37:34.287Z,74.37
2022-11-20T00:41:45.750Z,74.84
2022-11-20T00:46:02.252Z,74.70
2022-11-20T00:50:13.725Z,74.74
2022-11-20T00:54:25.274Z,74.84
2022-11-20T00:58:39.345Z,75.12
2022-11-20T01:02:50.760Z,75.33
2022-11-20T01:07:02.264Z,75.57
2022-11-20T01:11:22.751Z,75.55
2022-11-20T01:15:34.948Z,75.55
2022-11-20T01:19:51.653Z,75.61
2022-11-20T01:24:04.728Z,75.33
2022-11-20T01:28:16.187Z,76.13
2022-11-20T01:32:27.697Z,75.90
2022-11-20T01:36:40.346Z,75.73
2022-11-20T01:40:56.244Z,75.83
2022-11-20T01:45:45.807Z,76.35
2022-11-20T01:50:03.821Z,76.48
2022-11-20T01:54:24.132Z,76.34
2022-11-20T01:58:39.980Z,76.69
2022-11-20T02:02:58.550Z,76.25
2022-11-20T02:07:10.285Z,76.19
2022-11-20T02:11:22.700Z,76.40
2022-11-20T02:15:34.740Z,76.90
2022-11-20T02:19:46.258Z,76.95
2022-11-20T02:24:08.547Z,76.92
2022-11-20T02:28:20.387Z,76.83
2022-11-20T02:32:33.715Z,76.64
2022-11-20T02:36:47.613Z,76.64
2022-11-20T02:40:59.082Z,76.88
2022-11-20T02:45:11.180Z,77.00
2022-11-20T02:49:22.716Z,76.93
2022-11-20T02:53:34.345Z,76.81
2022-11-20T02:57:45.830Z,76.90
2022-11-20T03:01:57.378Z,77.47
2022-11-20T03:06:09.147Z,77.30
2022-11-20T03:10:20.593Z,77.38
2022-11-20T03:14:32.516Z,77.38
2022-11-20T03:18:44.706Z,77.26
2022-11-20T03:22:56.268Z,77.63
2022-11-20T03:27:07.995Z,77.28
2022-11-20T03:31:22.653Z,77.83
2022-11-20T03:35:34.327Z,77.39
2022-11-20T03:39:45.895Z,77.44
2022-11-20T03:44:00.254Z,77.86
2022-11-20T03:48:11.834Z,77.61
2022-11-20T03:52:23.448Z,77.89
2022-11-20T03:56:37.313Z,77.90
2022-11-20T04:00:48.941Z,77.71
2022-11-20T04:05:00.549Z,77.76
2022-11-20T04:09:12.264Z,77.87
2022-11-20T04:13:23.879Z,77.71
2022-11-20T04:17:35.604Z,78.04
2022-11-20T04:21:47.296Z,78.17
2022-11-20T04:26:06.906Z,78.19
2022-11-20T04:30:18.595Z,78.36
2022-11-20T04:34:30.189Z,78.13
2022-11-20T04:38:41.927Z,78.10
2022-11-20T04:42:53.518Z,77.83
2022-11-20T04:47:05.315Z,78.25
2022-11-20T04:51:16.939Z,78.77
2022-11-20T04:55:28.534Z,78.65
2022-11-20T04:59:40.112Z,78.39
2022-11-20T05:03:52.588Z,78.36
2022-11-20T05:08:04.549Z,78.80
2022-11-20T05:12:16.184Z,78.40
2022-11-20T05:16:27.777Z,78.44
2022-11-20T05:20:39.463Z,78.79
2022-11-20T05:24:51.091Z,79.10
2022-11-20T05:29:02.843Z,78.66
2022-11-20T05:33:14.752Z,78.85
2022-11-20T05:37:26.466Z,78.72
2022-11-20T05:41:38.058Z,78.77
2022-11-20T05:45:55.866Z,79.01
2022-11-20T05:50:07.732Z,79.33
2022-11-20T05:54:19.317Z,79.02
2022-11-20T05:58:32.768Z,78.99
2022-11-20T06:02:44.437Z,79.59
2022-11-20T06:06:56.018Z,79.61
2022-11-20T06:11:13.491Z,79.60
2022-11-20T06:15:25.413Z,79.75
2022-11-20T06:19:37.033Z,79.80
2022-11-20T06:23:49.757Z,79.71
2022-11-20T06:28:01.352Z,79.58
2022-11-20T06:32:12.967Z,79.65
2022-11-20T06:36:24.516Z,79.79
2022-11-20T06:40:36.054Z,79.53
2022-11-20T06:44:47.688Z,79.62
2022-11-20T06:48:59.389Z,79.50
2022-11-20T06:53:10.953Z,79.89
2022-11-20T06:57:22.584Z,79.58
2022-11-20T07:01:34.387Z,80.09
2022-11-20T07:05:46.929Z,80.17
2022-11-20T07:09:58.578Z,79.98
2022-11-20T07:14:10.150Z,80.42
2022-11-20T07:18:21.986Z,79.99
2022-11-20T07:22:33.541Z,80.37
2022-11-20T07:26:48.102Z,80.45
2022-11-20T07:31:00.027Z,80.82
2022-11-20T07:35:11.684Z,80.94
2022-11-20T07:39:23.590Z,81.06
2022-11-20T07:43:39.896Z,80.88
2022-11-20T07:47:53.068Z,81.32
2022-11-20T07:52:05.460Z,81.72
2022-11-20T07:56:17.176Z,81.17
2022-11-20T08:00:28.925Z,81.21
2022-11-20T08:04:40.589Z,81.83
2022-11-20T08:08:52.419Z,81.64
2022-11-20T08:13:22.835Z,81.99
2022-11-20T08:17:34.561Z,82.02
2022-11-20T08:21:46.697Z,82.32
2022-11-20T08:25:58.478Z,82.24
2022-11-20T08:30:10.827Z,82.16
2022-11-20T08:34:22.426Z,82.18
2022-11-20T08:38:34.000Z,82.23
2022-11-20T08:42:50.491Z,82.22
2022-11-20T08:47:02.161Z,81.96
2022-11-20T08:51:13.859Z,82.58
2022-11-20T08:55:25.476Z,81.49
2022-11-20T09:00:04.396Z,78.74
2022-11-20T09:04:08.726Z,78.74
2022-11-20T09:08:20.324Z,78.38
2022-11-20T09:12:31.855Z,78.56
2022-11-20T09:16:43.429Z,78.01
2022-11-20T09:21:02.582Z,77.37
2022-11-20T09:25:14.229Z,77.42
2022-11-20T09:29:25.886Z,77.28
2022-11-20T09:33:37.622Z,77.02
2022-11-20T09:37:49.330Z,77.23
2022-11-20T09:42:05.419Z,77.44
2022-11-20T09:46:30.896Z,77.64
2022-11-20T09:51:10.463Z,77.37
2022-11-20T09:55:22.656Z,77.50
2022-11-20T09:59:47.027Z,77.98
2022-11-20T10:04:14.804Z,77.91
2022-11-20T10:08:32.894Z,78.08
2022-11-20T10:13:11.945Z,78.13
2022-11-20T10:17:46.178Z,77.93
2022-11-20T10:22:10.024Z,77.99
2022-11-20T10:26:53.016Z,78.05
2022-11-20T10:31:11.729Z,78.12
2022-11-20T10:35:29.656Z,77.92
2022-11-20T10:40:22.735Z,77.76
2022-11-20T10:44:56.696Z,77.65
2022-11-20T10:49:26.779Z,77.69
2022-11-20T10:53:54.936Z,77.39
2022-11-20T10:58:18.077Z,77.46
2022-11-20T11:02:35.975Z,77.57
2022-11-20T11:06:49.654Z,77.91
2022-11-20T11:11:10.362Z,77.97
2022-11-20T11:15:31.513Z,77.70
2022-11-20T11:19:43.148Z,77.64
2022-11-20T11:24:26.847Z,77.85
2022-11-20T11:28:35.418Z,77.72
2022-11-20T11:32:47.433Z,77.64
2022-11-20T11:37:00.377Z,78.37
2022-11-20T11:41:22.038Z,78.35
2022-11-20T11:45:33.679Z,78.25
2022-11-20T11:49:45.402Z,78.52
2022-11-20T11:54:00.179Z,78.09
2022-11-20T11:58:42.875Z,78.41
2022-11-20T12:02:58.540Z,78.48
2022-11-20T12:07:47.633Z,78.67
2022-11-20T12:12:11.525Z,79.00
2022-11-20T12:16:23.912Z,79.62
2022-11-20T12:20:44.899Z,80.18
2022-11-20T12:25:04.511Z,80.62
2022-11-20T12:29:27.598Z,80.21
2022-11-20T12:34:10.153Z,80.57
2022-11-20T12:38:33.869Z,80.85
2022-11-20T12:43:30.031Z,80.92
2022-11-20T12:47:56.970Z,81.22
2022-11-20T12:52:31.188Z,80.99
2022-11-20T12:57:12.769Z,81.50
2022-11-20T13:01:53.777Z,81.53
2022-11-20T13:06:18.781Z,81.46
2022-11-20T13:10:44.473Z,81.42
2022-11-20T13:15:04.514Z,81.53
2022-11-20T13:19:18.248Z,81.88
2022-11-20T13:23:29.974Z,82.28
2022-11-20T13:27:49.023Z,82.28
2022-11-20T13:32:08.095Z,83.11
2022-11-20T13:36:29.272Z,83.40
2022-11-20T13:40:54.872Z,83.83
2022-11-20T13:45:12.601Z,84.06
2022-11-20T13:49:44.802Z,84.25
2022-11-20T13:53:59.673Z,84.24
2022-11-20T13:58:41.508Z,84.55
2022-11-20T14:03:17.651Z,84.67
2022-11-20T14:07:37.633Z,85.26
2022-11-20T14:11:49.405Z,85.52
2022-11-20T14:16:01.088Z,85.47
2022-11-20T14:20:16.319Z,85.32
2022-11-20T14:24:28.172Z,85.48
2022-11-20T14:28:41.120Z,86.00
2022-11-20T14:32:56.598Z,86.82
2022-11-20T14:37:16.789Z,86.98
2022-11-20T14:41:28.734Z,86.50
2022-11-20T14:45:40.466Z,87.48
2022-11-20T14:49:54.652Z,87.29
2022-11-20T14:54:17.284Z,87.07
2022-11-20T14:58:32.772Z,87.70
2022-11-20T15:02:50.044Z,87.52
2022-11-20T15:07:01.827Z,88.20
2022-11-20T15:11:24.607Z,88.14
2022-11-20T15:15:50.392Z,88.45
2022-11-20T15:20:03.086Z,88.75
2022-11-20T15:24:15.102Z,88.74
2022-11-20T15:28:56.222Z,89.54
2022-11-20T15:33:09.511Z,89.73
2022-11-20T15:37:22.249Z,89.24
2022-11-20T15:41:37.107Z,89.79
2022-11-20T15:46:01.458Z,89.63
2022-11-20T15:50:18.273Z,89.94
2022-11-20T15:54:29.899Z,89.94
2022-11-20T15:58:42.336Z,89.83
2022-11-20T16:02:53.936Z,90.36
2022-11-20T16:07:06.079Z,90.85
2022-11-20T16:11:18.739Z,90.41
2022-11-20T16:15:49.085Z,90.79
2022-11-20T16:20:00.675Z,90.58
2022-11-20T16:24:14.029Z,91.50
2022-11-20T16:28:25.827Z,91.21
2022-11-20T16:32:39.614Z,91.23
2022-11-20T16:36:51.409Z,91.70
2022-11-20T16:41:03.648Z,91.73
2022-11-20T16:45:19.982Z,91.83
2022-11-20T16:49:34.942Z,91.91
2022-11-20T16:53:46.541Z,92.13
2022-11-20T16:57:58.033Z,92.43
2022-11-20T17:02:10.526Z,92.30
2022-11-20T17:06:25.368Z,92.50
2022-11-20T17:10:36.898Z,92.57
2022-11-20T17:14:48.480Z,92.68
2022-11-20T17:19:03.403Z,92.80
2022-11-20T17:23:15.207Z,92.92
2022-11-20T17:27:26.956Z,93.15
2022-11-20T17:31:39.422Z,92.93
2022-11-20T17:35:50.962Z,93.14
2022-11-20T17:40:02.479Z,93.64
2022-11-20T17:44:14.179Z,93.22
2022-11-20T17:48:26.138Z,92.98
2022-11-20T17:52:37.573Z,93.51
2022-11-20T17:57:07.816Z,93.64
2022-11-20T18:01:19.789Z,93.52
2022-11-20T18:05:31.359Z,93.37
2022-11-20T18:09:42.789Z,93.62
2022-11-20T18:14:15.896Z,93.71
2022-11-20T18:18:27.350Z,93.86
2022-11-20T18:22:38.871Z,94.00
2022-11-20T18:26:50.489Z,94.06
2022-11-20T18:31:06.699Z,94.12
2022-11-20T18:35:18.175Z,94.13
2022-11-20T18:39:29.831Z,94.34
2022-11-20T18:43:59.930Z,94.34
2022-11-20T18:48:11.484Z,94.63
2022-11-20T18:52:33.851Z,94.28
2022-11-20T18:56:45.479Z,95.11
2022-11-20T19:00:57.047Z,94.95
2022-11-20T19:05:09.741Z,95.08
2022-11-20T19:09:22.900Z,94.74
2022-11-20T19:13:35.800Z,94.62
2022-11-20T19:17:47.393Z,94.27
2022-11-20T19:21:58.923Z,94.72
2022-11-20T19:26:10.620Z,94.01
2022-11-20T19:30:22.143Z,94.49
2022-11-20T19:34:33.653Z,94.16
2022-11-20T19:38:52.336Z,93.63
2022-11-20T19:43:05.182Z,94.02
2022-11-20T19:47:16.892Z,93.81
2022-11-20T19:51:31.092Z,93.54
2022-11-20T19:55:45.525Z,93.63
2022-11-20T19:59:57.105Z,93.45
2022-11-20T20:04:09.000Z,93.31
2022-11-20T20:08:20.523Z,93.39
2022-11-20T20:12:32.136Z,93.35
2022-11-20T20:16:48.301Z,93.38
2022-11-20T20:21:05.294Z,93.32
2022-11-20T20:25:16.854Z,93.43
2022-11-20T20:29:28.563Z,93.56
2022-11-20T20:33:41.312Z,93.68
2022-11-20T20:37:52.900Z,93.53
2022-11-20T20:42:04.541Z,93.33
2022-11-20T20:46:16.168Z,93.59
2022-11-20T20:50:27.737Z,93.42
2022-11-20T20:54:41.905Z,93.77
2022-11-20T20:58:53.644Z,93.44
2022-11-20T21:03:10.451Z,93.25
2022-11-20T21:07:22.212Z,93.51
2022-11-20T21:11:34.874Z,93.30
2022-11-20T21:15:48.988Z,93.09
2022-11-20T21:20:00.455Z,93.02
2022-11-20T21:24:11.945Z,93.22
2022-11-20T21:28:23.413Z,93.06
2022-11-20T21:32:34.905Z,92.85
2022-11-20T21:36:46.828Z,93.03
2022-11-20T21:40:58.790Z,93.04
2022-11-20T21:45:10.452Z,93.10
2022-11-20T21:49:22.407Z,92.90
2022-11-20T21:53:34.658Z,92.85
2022-11-20T21:57:46.108Z,92.58
2022-11-20T22:01:57.640Z,92.95
2022-11-20T22:06:10.200Z,92.46
2022-11-20T22:10:21.675Z,92.92
2022-11-20T22:14:33.145Z,92.75
2022-11-20T22:18:47.284Z,92.80
2022-11-20T22:22:58.782Z,92.64
2022-11-20T22:27:10.430Z,92.73
2022-11-20T22:31:24.247Z,92.93
2022-11-20T22:35:35.673Z,92.60
2022-11-20T22:39:47.104Z,92.64
2022-11-20T22:44:04.082Z,93.00
2022-11-20T22:48:15.587Z,92.95
2022-11-20T22:52:27.100Z,92.62
2022-11-20T22:56:39.128Z,92.90
2022-11-20T23:00:51.120Z,92.44
2022-11-20T23:05:02.641Z,92.49
2022-11-20T23:09:14.298Z,92.43
2022-11-20T23:13:26.072Z,92.50
2022-11-20T23:17:37.556Z,92.39
2022-11-20T23:21:49.132Z,92.37
2022-11-20T23:26:09.625Z,92.30
2022-11-20T23:30:21.483Z,92.10
2022-11-20T23:34:32.938Z,92.31
2022-11-20T23:38:44.471Z,92.14
2022-11-20T23:43:14.296Z,92.25
2022-11-20T23:47:25.817Z,92.37
2022-11-20T23:51:37.238Z,92.16
2022-11-20T23:55:54.209Z,92.14
